Time;durP1;ratioP1;P1;durP2;ratioP2;P2;SDS_P1;SDS_P2;PMS_P1;PMS_P2;Temp;Humidity;BMP_temperature;BMP_pressure;BME280_temperature;BME280_humidity;BME280_pressure;Samples;Min_cycle;Max_cycle;Signal;HPM_P1;HPM_P2
2021/11/22 00:01:14;;;;;;;21.90;12.88;;;;;;;1.93;71.38;94607.06;5111524;28;20027;-71
2021/11/22 00:03:40;;;;;;;27.17;15.93;;;;;;;1.89;71.56;94607.31;5110305;28;20038;-71
2021/11/22 00:06:05;;;;;;;23.83;14.13;;;;;;;1.86;71.10;94602.34;5093226;28;20035;-71
2021/11/22 00:08:30;;;;;;;24.75;14.88;;;;;;;1.84;71.62;94601.59;5110217;28;20015;-71
2021/11/22 00:10:56;;;;;;;21.95;13.55;;;;;;;1.78;71.43;94595.06;5110179;28;20032;-71
2021/11/22 00:13:22;;;;;;;23.23;14.05;;;;;;;1.71;72.06;94593.72;5110212;28;20080;-71
2021/11/22 00:15:47;;;;;;;30.27;17.92;;;;;;;1.73;71.54;94605.56;5111732;28;20085;-71
2021/11/22 00:18:12;;;;;;;27.63;16.83;;;;;;;1.59;71.26;94595.19;5110200;28;20028;-71
2021/11/22 00:20:38;;;;;;;21.98;13.93;;;;;;;1.65;71.37;94604.28;5110178;28;20042;-71
2021/11/22 00:23:04;;;;;;;25.85;14.10;;;;;;;1.65;71.92;94605.13;5110124;28;20027;-71
2021/11/22 00:25:29;;;;;;;37.90;22.10;;;;;;;1.61;72.02;94608.72;5109907;28;20080;-71
2021/11/22 00:27:55;;;;;;;37.00;21.60;;;;;;;1.52;72.16;94606.63;5093149;28;20032;-71
2021/11/22 00:30:20;;;;;;;30.17;17.80;;;;;;;1.45;72.18;94601.00;5109952;28;20067;-71
2021/11/22 00:32:46;;;;;;;27.92;17.98;;;;;;;1.53;72.06;94605.72;5109994;28;20032;-71
2021/11/22 00:35:13;;;;;;;57.95;27.63;;;;;;;1.51;72.72;94603.25;5110069;28;20035;-71
2021/11/22 00:37:40;;;;;;;77.47;34.75;;;;;;;1.46;73.16;94599.28;5114004;28;20019;-71
2021/11/22 00:40:08;;;;;;;62.85;32.28;;;;;;;1.44;74.72;94588.28;5097144;28;20075;-71
2021/11/22 00:42:33;;;;;;;42.20;21.40;;;;;;;1.56;74.80;94596.19;5114082;28;20035;-71
2021/11/22 00:44:59;;;;;;;25.20;14.60;;;;;;;1.70;75.85;94579.25;5114177;28;20493;-71
2021/11/22 00:47:24;;;;;;;24.63;14.60;;;;;;;1.87;75.22;94584.34;5096998;28;20044;-71
2021/11/22 00:49:50;;;;;;;24.20;14.20;;;;;;;2.00;75.29;94582.75;5114031;28;20038;-71
2021/11/22 00:52:16;;;;;;;24.05;15.10;;;;;;;2.19;74.88;94580.06;5114009;28;20416;-71
2021/11/22 00:54:42;;;;;;;26.35;14.57;;;;;;;2.30;74.78;94589.75;5113916;28;20070;-71
2021/11/22 00:57:07;;;;;;;22.48;14.20;;;;;;;2.34;74.24;94582.69;5113881;28;20055;-71
2021/11/22 00:59:34;;;;;;;26.35;15.55;;;;;;;2.48;73.93;94590.50;5096644;28;20063;-71
2021/11/22 01:02:00;;;;;;;34.72;20.08;;;;;;;2.48;72.99;94595.63;5113766;28;20028;-71
2021/11/22 01:04:25;;;;;;;39.38;23.40;;;;;;;2.38;73.32;94582.47;5113724;28;20027;-71
2021/11/22 01:06:51;;;;;;;50.88;28.42;;;;;;;2.34;73.71;94598.94;5096581;28;20031;-71
2021/11/22 01:09:16;;;;;;;54.75;27.40;;;;;;;2.32;73.66;94580.22;5113644;28;20031;-71
2021/11/22 01:11:42;;;;;;;51.00;29.60;;;;;;;2.37;73.27;94593.63;5096592;28;20047;-72
2021/11/22 01:14:07;;;;;;;46.80;26.10;;;;;;;2.38;73.25;94597.84;5113381;28;20035;-71
2021/11/22 01:16:33;;;;;;;49.30;27.45;;;;;;;2.28;71.87;94583.03;5113490;28;20385;-71
2021/11/22 01:18:59;;;;;;;50.53;27.23;;;;;;;2.22;73.13;94602.13;5113350;28;20027;-71
2021/11/22 01:21:24;;;;;;;50.53;27.67;;;;;;;2.17;72.68;94599.84;5113316;28;20024;-71
2021/11/22 01:23:50;;;;;;;38.88;21.40;;;;;;;2.10;72.79;94590.81;5113228;28;20100;-71
2021/11/22 01:26:15;;;;;;;32.95;18.05;;;;;;;2.09;71.84;94599.41;5096289;28;20580;-71
2021/11/22 01:28:41;;;;;;;33.03;18.90;;;;;;;2.04;72.15;94592.88;5114430;28;20028;-71
2021/11/22 01:31:06;;;;;;;31.38;16.77;;;;;;;1.92;71.92;94579.81;5113200;28;20051;-71
2021/11/22 01:33:32;;;;;;;24.60;14.63;;;;;;;1.94;72.02;94584.84;5113188;28;20038;-71
2021/11/22 01:35:57;;;;;;;22.42;13.95;;;;;;;1.75;71.96;94570.41;5113082;28;20425;-71
2021/11/22 01:38:23;;;;;;;25.08;15.55;;;;;;;1.78;71.49;94589.94;5113034;28;20466;-71
2021/11/22 01:40:49;;;;;;;33.90;18.88;;;;;;;1.66;71.83;94590.56;5112988;28;20477;-71
2021/11/22 01:43:15;;;;;;;34.13;17.15;;;;;;;1.54;71.71;94577.50;5112984;28;20031;-71
2021/11/22 01:45:42;;;;;;;30.58;16.63;;;;;;;1.58;71.80;94592.69;5113049;28;20175;-71
2021/11/22 01:48:07;;;;;;;39.13;21.48;;;;;;;1.56;72.18;94600.44;5095071;28;20027;-71
2021/11/22 01:50:33;;;;;;;38.03;21.20;;;;;;;1.48;72.04;94600.03;5095902;28;20546;-71
2021/11/22 01:52:58;;;;;;;35.80;20.80;;;;;;;1.41;71.92;94604.63;5095818;28;20011;-71
2021/11/22 01:55:25;;;;;;;56.22;30.52;;;;;;;1.24;71.79;94582.44;5112898;28;20032;-71
2021/11/22 01:57:51;;;;;;;66.82;33.60;;;;;;;1.26;72.91;94590.88;5112665;28;20409;-71
2021/11/22 02:00:31;;;;;;;51.25;28.55;;;;;;;1.26;73.23;94590.03;5114111;28;20035;-71
2021/11/22 02:02:56;;;;;;;47.45;25.75;;;;;;;1.18;72.82;94575.06;5112625;28;20051;-71
2021/11/22 02:05:22;;;;;;;61.88;33.00;;;;;;;1.22;72.67;94591.09;5095632;28;20485;-71
2021/11/22 02:07:47;;;;;;;55.97;30.38;;;;;;;1.16;72.54;94593.97;5113700;28;20046;-71
2021/11/22 02:10:13;;;;;;;50.17;28.17;;;;;;;1.04;72.39;94577.50;5112561;28;20040;-71
2021/11/22 02:12:38;;;;;;;51.50;28.38;;;;;;;1.10;73.14;94590.78;5112425;28;20015;-71
2021/11/22 02:15:05;;;;;;;47.47;25.08;;;;;;;1.10;73.00;94592.53;5112488;28;20036;-71
2021/11/22 02:17:32;;;;;;;42.55;21.63;;;;;;;0.85;72.61;94554.53;5112350;28;20051;-71
2021/11/22 02:20:04;;;;;;;38.97;21.08;;;;;;;0.95;72.45;94594.13;5112234;28;20042;-71
2021/11/22 02:22:33;;;;;;;42.22;21.25;;;;;;;0.89;72.92;94590.13;5112323;28;20028;-71
2021/11/22 02:24:59;;;;;;;37.25;20.55;;;;;;;0.82;73.59;94578.53;5095163;28;20063;-71
2021/11/22 02:27:24;;;;;;;35.15;18.80;;;;;;;0.66;73.59;94587.84;5095399;28;20107;-71
2021/11/22 02:29:50;;;;;;;36.80;20.55;;;;;;;0.57;73.62;94558.44;5111929;28;20128;-71
2021/11/22 02:32:15;;;;;;;35.85;20.00;;;;;;;0.60;73.58;94598.34;5078210;28;20462;-71
2021/11/22 02:34:41;;;;;;;37.63;20.63;;;;;;;0.54;74.85;94573.91;5112063;28;20043;-71
2021/11/22 02:37:07;;;;;;;34.00;19.88;;;;;;;0.48;74.26;94594.66;5095066;28;20151;-71
2021/11/22 02:39:32;;;;;;;46.22;23.98;;;;;;;0.48;75.28;94573.38;5113179;28;20154;-71
2021/11/22 02:41:57;;;;;;;43.47;22.38;;;;;;;0.46;75.29;94587.97;5111931;28;20026;-71
2021/11/22 02:44:23;;;;;;;41.67;24.95;;;;;;;0.47;75.79;94576.81;5111870;28;20035;-71
2021/11/22 02:46:48;;;;;;;38.25;23.50;;;;;;;0.25;75.64;94557.38;5111686;28;20019;-71
2021/11/22 02:49:14;;;;;;;43.03;22.63;;;;;;;0.49;75.60;94575.03;5111668;28;20039;-71
2021/11/22 02:51:40;;;;;;;50.50;26.42;;;;;;;0.47;76.70;94566.59;5111764;28;20409;-71
2021/11/22 02:54:05;;;;;;;35.90;20.80;;;;;;;0.65;76.99;94570.84;5111588;28;20485;-71
2021/11/22 02:56:32;;;;;;;36.17;21.77;;;;;;;0.64;77.45;94558.94;5094649;28;20031;-71
2021/11/22 02:58:57;;;;;;;30.63;17.73;;;;;;;0.79;77.25;94562.50;5110900;28;20035;-71
2021/11/22 03:01:23;;;;;;;31.05;17.52;;;;;;;0.89;76.78;94574.78;5110915;28;20051;-71
2021/11/22 03:03:48;;;;;;;40.13;23.00;;;;;;;0.92;76.48;94566.13;5111288;28;20034;-71
2021/11/22 03:06:14;;;;;;;38.08;20.50;;;;;;;0.97;76.07;94573.56;5094368;28;20039;-71
2021/11/22 03:08:41;;;;;;;43.90;25.38;;;;;;;1.03;77.90;94568.13;5111348;28;20485;-71
2021/11/22 03:11:06;;;;;;;46.25;25.83;;;;;;;1.06;77.47;94557.78;5111249;28;20073;-71
2021/11/22 03:13:32;;;;;;;42.53;23.80;;;;;;;1.13;77.32;94565.97;5111342;28;20332;-71
2021/11/22 03:15:57;;;;;;;40.40;21.52;;;;;;;1.15;77.16;94564.97;5111412;28;20035;-71
2021/11/22 03:18:23;;;;;;;40.35;22.30;;;;;;;1.15;76.27;94570.09;5094072;28;20032;-71
2021/11/22 03:20:48;;;;;;;36.33;20.33;;;;;;;1.22;76.44;94576.56;5110926;28;20420;-71
2021/11/22 03:23:14;;;;;;;30.02;16.42;;;;;;;1.27;75.93;94578.88;5112530;28;20015;-71
2021/11/22 03:25:39;;;;;;;29.20;16.10;;;;;;;1.27;75.87;94564.34;5094040;28;20040;-71
2021/11/22 03:28:06;;;;;;;28.08;15.45;;;;;;;1.29;75.97;94575.34;5093986;28;20077;-71
2021/11/22 03:30:31;;;;;;;25.05;16.48;;;;;;;1.19;75.54;94566.47;5111797;28;20114;-71
2021/11/22 03:32:57;;;;;;;33.30;18.77;;;;;;;1.27;75.90;94578.88;5093846;28;20465;-71
2021/11/22 03:35:22;;;;;;;33.53;20.55;;;;;;;1.18;76.25;94564.00;5111012;28;20497;-71
2021/11/22 03:37:48;;;;;;;33.40;19.30;;;;;;;1.19;76.18;94579.28;5110791;28;20462;-71
2021/11/22 03:40:13;;;;;;;29.90;17.60;;;;;;;1.21;75.97;94580.03;5110803;28;20436;-71
2021/11/22 03:42:53;;;;;;;33.38;18.58;;;;;;;1.14;75.66;94565.88;5110750;28;20085;-71
2021/11/22 03:45:19;;;;;;;29.48;18.05;;;;;;;1.09;75.39;94568.69;5095782;28;20039;-71
2021/11/22 03:47:44;;;;;;;31.67;17.85;;;;;;;1.17;75.69;94591.34;5110573;28;20409;-71
2021/11/22 03:50:09;;;;;;;30.02;17.02;;;;;;;1.17;75.31;94583.66;5110668;28;20023;-71
2021/11/22 03:52:35;;;;;;;32.47;18.35;;;;;;;1.12;75.59;94580.50;5093564;28;20451;-71
2021/11/22 03:55:00;;;;;;;24.48;15.38;;;;;;;1.22;75.55;94596.19;5110510;28;20458;-71
2021/11/22 03:57:27;;;;;;;24.98;15.32;;;;;;;1.22;74.89;94586.78;5110476;28;20028;-71
2021/11/22 03:59:56;;;;;;;28.50;16.27;;;;;;;1.19;75.23;94604.84;5110342;28;20082;-71
2021/11/22 04:02:22;;;;;;;34.22;18.70;;;;;;;1.16;74.47;94583.72;5110308;28;20542;-71
2021/11/22 04:04:47;;;;;;;35.47;20.92;;;;;;;1.11;74.76;94591.63;5110326;28;20028;-71
2021/11/22 04:07:13;;;;;;;34.40;21.20;;;;;;;1.07;74.40;94602.91;5110322;28;20413;-71
2021/11/22 04:09:38;;;;;;;34.70;19.85;;;;;;;1.07;74.24;94597.81;5093249;28;20035;-71
2021/11/22 04:12:04;;;;;;;32.58;19.25;;;;;;;1.00;74.60;94596.44;5109861;28;20027;-71
2021/11/22 04:14:29;;;;;;;42.83;24.90;;;;;;;0.99;74.67;94599.91;5110112;28;20038;-71
2021/11/22 04:16:55;;;;;;;48.10;27.88;;;;;;;0.91;75.19;94600.28;5111405;28;20027;-71
2021/11/22 04:19:20;;;;;;;58.30;32.05;;;;;;;0.89;77.53;94582.47;5110092;28;20040;-71
2021/11/22 04:21:46;;;;;;;49.42;26.60;;;;;;;0.85;77.73;94593.72;5110050;28;20413;-71
2021/11/22 04:24:11;;;;;;;48.72;28.05;;;;;;;0.97;76.48;94610.19;5110036;28;20085;-71
2021/11/22 04:26:37;;;;;;;41.97;24.90;;;;;;;0.97;76.38;94597.41;5110131;28;20027;-71
2021/11/22 04:29:02;;;;;;;35.20;21.73;;;;;;;0.89;77.13;94597.81;5092752;28;20043;-71
2021/11/22 04:31:29;;;;;;;36.30;21.08;;;;;;;0.97;76.10;94606.81;5110028;28;20058;-71
2021/11/22 04:33:54;;;;;;;36.53;20.17;;;;;;;1.00;75.92;94622.00;5109887;28;20027;-71
2021/11/22 04:36:20;;;;;;;37.28;20.27;;;;;;;0.92;76.49;94594.28;5111240;28;20038;-71
2021/11/22 04:38:45;;;;;;;35.47;19.20;;;;;;;0.88;76.28;94608.91;5111112;28;20024;-71
2021/11/22 04:41:11;;;;;;;33.83;19.65;;;;;;;0.92;76.55;94608.75;5092879;28;20047;-71
2021/11/22 04:43:36;;;;;;;45.70;24.83;;;;;;;0.92;76.06;94611.31;5109972;28;20076;-71
2021/11/22 04:46:02;;;;;;;50.58;29.85;;;;;;;0.80;76.03;94597.41;5092908;28;20539;-71
2021/11/22 04:48:27;;;;;;;58.20;35.33;;;;;;;0.83;75.75;94618.53;5109830;28;20028;-71
2021/11/22 04:50:53;;;;;;;60.70;35.38;;;;;;;0.80;75.73;94618.69;5109758;28;20493;-71
2021/11/22 04:53:18;;;;;;;61.83;34.30;;;;;;;0.68;75.37;94611.59;5109903;28;20511;-71
2021/11/22 04:55:43;;;;;;;47.80;29.45;;;;;;;0.78;75.64;94625.63;5109816;28;20405;-71
2021/11/22 04:58:09;;;;;;;59.20;36.80;;;;;;;0.73;75.14;94631.84;5109729;28;20039;-71
2021/11/22 05:00:35;;;;;;;68.05;38.17;;;;;;;0.76;75.09;94639.38;5109812;28;20031;-71
2021/11/22 05:03:01;;;;;;;92.88;51.83;;;;;;;0.56;75.22;94609.66;5109757;28;20051;-71
2021/11/22 05:05:26;;;;;;;85.65;47.05;;;;;;;0.78;75.39;94643.53;5109840;28;20028;-71
2021/11/22 05:07:52;;;;;;;77.55;45.33;;;;;;;0.83;75.45;94648.41;5092672;28;20050;-71
2021/11/22 05:10:18;;;;;;;56.38;33.55;;;;;;;0.67;74.87;94622.75;5109872;28;20031;-71
2021/11/22 05:12:43;;;;;;;64.68;37.60;;;;;;;0.74;75.13;94653.97;5109670;28;20031;-71
2021/11/22 05:15:09;;;;;;;54.42;33.47;;;;;;;0.76;75.67;94659.84;5111149;28;20488;-71
2021/11/22 05:17:34;;;;;;;52.97;32.70;;;;;;;0.78;75.31;94653.75;5109583;28;20040;-71
2021/11/22 05:20:01;;;;;;;46.83;27.77;;;;;;;0.69;75.20;94646.50;5092475;28;20027;-71
2021/11/22 05:22:26;;;;;;;59.15;32.75;;;;;;;0.70;75.06;94657.53;5109688;28;20036;-71
2021/11/22 05:24:52;;;;;;;46.65;27.42;;;;;;;0.66;74.94;94654.31;5114722;28;20492;-71
2021/11/22 05:27:23;;;;;;;45.75;27.65;;;;;;;0.56;75.03;94651.38;5096273;28;20031;-71
2021/11/22 05:29:49;;;;;;;51.70;29.98;;;;;;;0.66;75.44;94649.19;5096392;28;20119;-71
2021/11/22 05:32:16;;;;;;;46.35;27.33;;;;;;;0.31;75.18;94598.00;5113306;28;20110;-71
2021/11/22 05:34:43;;;;;;;46.47;26.65;;;;;;;0.66;75.91;94650.03;5113054;28;20019;-71
2021/11/22 05:37:08;;;;;;;38.28;22.33;;;;;;;0.59;75.46;94646.09;5113177;28;20429;-71
2021/11/22 05:39:34;;;;;;;44.50;25.02;;;;;;;0.56;75.64;94653.94;5096107;28;20023;-71
2021/11/22 05:41:59;;;;;;;61.05;31.73;;;;;;;0.51;75.78;94666.09;5112953;28;20478;-71
2021/11/22 05:44:25;;;;;;;50.03;26.25;;;;;;;0.55;75.60;94665.03;5113139;28;20424;-71
2021/11/22 05:46:50;;;;;;;45.95;24.88;;;;;;;0.47;76.09;94658.63;5112911;28;20504;-71
2021/11/22 05:49:16;;;;;;;39.67;22.63;;;;;;;0.49;76.33;94657.66;5095843;28;20508;-71
2021/11/22 05:51:44;;;;;;;44.38;24.45;;;;;;;0.57;75.92;94664.97;5095849;28;20508;-71
2021/11/22 05:54:09;;;;;;;38.90;21.25;;;;;;;0.60;75.95;94659.72;5095998;28;20416;-71
2021/11/22 05:56:35;;;;;;;35.33;18.25;;;;;;;0.55;76.18;94656.53;5112665;28;20083;-71
2021/11/22 05:59:00;;;;;;;42.33;22.30;;;;;;;0.62;75.92;94665.59;5095514;28;20076;-71
2021/11/22 06:01:26;;;;;;;49.92;26.40;;;;;;;0.52;75.70;94646.47;5112566;28;20039;-71
2021/11/22 06:03:51;;;;;;;106.55;54.53;;;;;;;0.64;75.89;94661.22;5095404;28;20020;-71
2021/11/22 06:06:17;;;;;;;78.30;42.22;;;;;;;0.63;76.19;94662.13;5112524;28;20031;-71
2021/11/22 06:08:42;;;;;;;68.75;35.22;;;;;;;0.73;75.87;94677.88;5112576;28;20031;-71
2021/11/22 06:11:08;;;;;;;42.40;22.80;;;;;;;0.83;76.71;94667.13;5112450;28;20046;-71
2021/11/22 06:13:33;;;;;;;35.70;20.98;;;;;;;0.76;77.48;94670.06;5112382;28;20033;-71
2021/11/22 06:15:58;;;;;;;44.13;25.00;;;;;;;0.81;76.57;94683.47;5113554;28;20027;-71
2021/11/22 06:18:24;;;;;;;49.92;29.50;;;;;;;0.76;76.58;94688.78;5113385;28;20042;-71
2021/11/22 06:20:49;;;;;;;62.63;33.85;;;;;;;0.81;76.01;94684.28;5113309;28;20047;-71
2021/11/22 06:23:15;;;;;;;67.85;33.38;;;;;;;0.84;76.21;94689.25;5112292;28;20034;-71
2021/11/22 06:25:40;;;;;;;79.45;38.92;;;;;;;0.94;76.06;94692.19;5095347;28;20042;-71
2021/11/22 06:28:06;;;;;;;82.03;42.78;;;;;;;0.92;76.93;94685.50;5112448;28;20032;-71
2021/11/22 06:30:31;;;;;;;94.47;47.20;;;;;;;0.93;76.71;94697.41;5094985;28;20498;-71
2021/11/22 06:32:57;;;;;;;102.13;51.63;;;;;;;0.94;76.67;94689.66;5112090;28;20489;-71
2021/11/22 06:35:23;;;;;;;95.07;46.58;;;;;;;0.98;76.55;94680.13;5094544;28;20049;-71
2021/11/22 06:37:48;;;;;;;92.10;47.17;;;;;;;1.00;76.28;94673.19;5094859;28;20031;-71
2021/11/22 06:40:14;;;;;;;82.30;42.50;;;;;;;1.05;76.45;94676.34;5111875;28;20135;-71
2021/11/22 06:42:40;;;;;;;86.63;46.58;;;;;;;1.09;76.65;94677.88;5113098;28;20462;-71
2021/11/22 06:45:06;;;;;;;97.38;51.72;;;;;;;1.17;76.18;94690.28;5111866;28;20030;-72
2021/11/22 06:47:32;;;;;;;116.82;59.25;;;;;;;1.23;76.92;94695.94;5111506;28;20037;-71
2021/11/22 06:49:58;;;;;;;111.45;56.90;;;;;;;1.15;76.98;94682.69;5130627;27;20033;-71
2021/11/22 06:52:23;;;;;;;95.90;52.25;;;;;;;1.22;76.70;94691.72;5114095;27;20023;-71
2021/11/22 06:54:49;;;;;;;87.63;50.33;;;;;;;1.22;77.11;94699.38;5112409;27;20042;-70
2021/11/22 06:57:15;;;;;;;91.90;48.28;;;;;;;1.20;76.97;94685.88;5109882;27;20035;-71
2021/11/22 06:59:42;;;;;;;106.63;56.00;;;;;;;1.33;77.07;94692.03;5092117;28;20024;-72
2021/11/22 07:02:12;;;;;;;102.63;50.85;;;;;;;1.38;76.57;94686.69;5111591;27;20425;-72
2021/11/22 07:04:38;;;;;;;92.93;46.60;;;;;;;1.43;76.72;94676.22;5105329;28;20059;-72
2021/11/22 07:07:04;;;;;;;87.53;46.60;;;;;;;1.53;76.99;94680.81;5111414;28;20066;-72
2021/11/22 07:09:29;;;;;;;86.75;47.00;;;;;;;1.56;76.43;94677.25;5111323;28;20129;-72
2021/11/22 07:11:55;;;;;;;85.40;44.47;;;;;;;1.60;76.89;94678.78;5117657;27;20031;-70
2021/11/22 07:14:20;;;;;;;74.70;40.17;;;;;;;1.65;76.44;94674.25;5112325;27;20043;-71
2021/11/22 07:16:46;;;;;;;81.53;43.55;;;;;;;1.64;76.58;94670.03;5094174;28;20031;-71
2021/11/22 07:19:11;;;;;;;71.70;38.08;;;;;;;1.73;76.24;94659.34;5094342;28;20032;-70
2021/11/22 07:21:37;;;;;;;173.27;76.93;;;;;;;2.25;79.41;94676.31;5104257;27;20412;-70
2021/11/22 07:24:02;;;;;;;200.18;91.03;;;;;;;2.75;82.47;94685.59;5127609;27;20502;-70
2021/11/22 07:26:28;;;;;;;191.15;90.07;;;;;;;3.26;85.55;94686.22;5117968;27;20469;-74
2021/11/22 07:28:53;;;;;;;173.23;86.35;;;;;;;3.68;85.62;94691.56;5097884;27;20454;-73
2021/11/22 07:31:19;;;;;;;150.20;75.72;;;;;;;3.62;85.63;94643.91;5119833;27;20043;-72
2021/11/22 07:33:44;;;;;;;135.50;67.80;;;;;;;4.03;86.17;94686.94;5096833;27;20476;-71
2021/11/22 07:36:10;;;;;;;130.50;64.63;;;;;;;4.13;85.95;94676.94;5097009;27;20434;-74
2021/11/22 07:38:35;;;;;;;118.35;57.92;;;;;;;4.23;83.75;94668.59;5110717;27;20034;-72
2021/11/22 07:41:01;;;;;;;90.10;47.38;;;;;;;4.18;82.52;94654.31;5106660;27;20493;-72
2021/11/22 07:43:26;;;;;;;88.82;45.00;;;;;;;4.31;82.03;94672.44;5113455;27;20456;-72
2021/11/22 07:45:52;;;;;;;83.53;44.92;;;;;;;4.41;77.72;94684.63;5113273;27;20095;-72
2021/11/22 07:48:18;;;;;;;76.50;43.08;;;;;;;4.50;76.07;94690.16;5131173;27;20022;-72
2021/11/22 07:50:43;;;;;;;96.65;49.33;;;;;;;4.61;74.30;94685.16;5132685;27;20031;-72
2021/11/22 07:53:08;;;;;;;85.47;44.70;;;;;;;4.71;71.20;94683.69;5131093;27;20026;-72
2021/11/22 07:55:34;;;;;;;83.78;44.15;;;;;;;4.78;68.74;94673.84;5116757;27;20040;-72
2021/11/22 07:57:59;;;;;;;94.57;48.85;;;;;;;4.70;69.64;94672.53;5110342;28;20031;-72
2021/11/22 08:00:26;;;;;;;100.20;49.40;;;;;;;4.75;69.83;94677.41;5110541;28;20032;-72
2021/11/22 08:02:51;;;;;;;83.45;43.65;;;;;;;4.83;70.25;94659.75;5076426;28;20027;-72
2021/11/22 08:05:17;;;;;;;85.10;46.70;;;;;;;5.08;69.20;94671.09;5093689;28;20035;-72
2021/11/22 08:07:42;;;;;;;89.70;46.50;;;;;;;5.19;69.57;94675.56;5110457;28;20027;-72
2021/11/22 08:10:18;;;;;;;79.47;43.80;;;;;;;5.29;70.03;94664.56;5117314;27;20031;-72
2021/11/22 08:12:43;;;;;;;77.68;40.17;;;;;;;5.49;69.95;94662.44;5103087;27;20031;-72
2021/11/22 08:15:10;;;;;;;77.03;41.17;;;;;;;5.73;69.94;94678.88;5131437;27;20090;-72
2021/11/22 08:17:38;;;;;;;80.00;40.70;;;;;;;5.91;69.68;94671.69;5112695;27;20572;-73
2021/11/22 08:20:07;;;;;;;64.50;36.40;;;;;;;6.09;69.71;94663.66;5102161;27;20046;-73
2021/11/22 08:22:33;;;;;;;88.20;46.22;;;;;;;6.21;68.53;94663.66;5131265;27;20068;-73
2021/11/22 08:24:58;;;;;;;81.57;45.55;;;;;;;6.38;67.78;94665.09;5114338;27;20063;-73
2021/11/22 08:27:27;;;;;;;89.90;49.15;;;;;;;6.59;67.10;94661.94;5097469;28;20476;-72
2021/11/22 08:29:53;;;;;;;94.47;48.92;;;;;;;6.79;67.07;94663.13;5113940;28;20051;-73
2021/11/22 08:32:18;;;;;;;84.45;44.30;;;;;;;6.98;67.60;94663.50;5126990;28;20043;-73
2021/11/22 08:34:44;;;;;;;78.82;42.47;;;;;;;7.15;67.04;94670.03;5093768;28;20040;-73
2021/11/22 08:37:10;;;;;;;65.38;38.20;;;;;;;7.24;67.36;94655.63;5110626;28;20031;-73
2021/11/22 08:39:35;;;;;;;84.25;42.10;;;;;;;7.45;66.79;94666.19;5093404;28;20462;-73
2021/11/22 08:42:01;;;;;;;84.20;44.63;;;;;;;7.65;66.36;94669.91;5093705;28;20477;-73
2021/11/22 08:44:26;;;;;;;88.95;46.90;;;;;;;7.77;64.29;94656.03;5093492;28;20048;-73
2021/11/22 08:46:52;;;;;;;80.97;41.90;;;;;;;7.87;64.60;94651.84;5111749;28;20027;-73
2021/11/22 08:49:17;;;;;;;101.80;48.10;;;;;;;8.06;62.37;94657.28;5110193;28;20500;-73
2021/11/22 08:51:43;;;;;;;93.53;46.22;;;;;;;8.09;61.02;94651.06;5110444;28;20027;-73
2021/11/22 08:54:09;;;;;;;74.38;41.30;;;;;;;8.13;60.56;94649.88;5111770;28;20016;-73
2021/11/22 08:56:34;;;;;;;76.63;42.47;;;;;;;8.14;61.15;94655.91;5076580;28;20024;-73
2021/11/22 08:59:00;;;;;;;77.57;40.30;;;;;;;8.26;61.54;94662.72;5114413;28;20032;-73
2021/11/22 09:01:26;;;;;;;75.47;42.95;;;;;;;8.35;61.40;94651.66;5114442;28;20107;-73
2021/11/22 09:03:52;;;;;;;66.30;35.83;;;;;;;8.46;61.95;94653.47;5097293;28;20028;-73
2021/11/22 09:06:20;;;;;;;71.60;40.83;;;;;;;8.58;62.37;94649.09;5113979;28;20077;-73
2021/11/22 09:08:46;;;;;;;79.00;42.40;;;;;;;8.66;62.64;94654.50;5097454;28;20054;-73
2021/11/22 09:11:12;;;;;;;87.50;44.25;;;;;;;8.68;61.57;94652.63;5080490;28;20575;-73
2021/11/22 09:13:38;;;;;;;82.45;42.67;;;;;;;8.64;60.97;94646.88;5114279;28;20032;-73
2021/11/22 09:16:04;;;;;;;84.40;44.97;;;;;;;8.61;60.92;94639.34;5113859;28;20035;-73
2021/11/22 09:18:30;;;;;;;84.90;45.45;;;;;;;8.65;61.22;94637.34;5080131;28;20027;-73
2021/11/22 09:20:55;;;;;;;100.93;51.13;;;;;;;8.63;61.01;94639.22;5096934;28;20040;-73
2021/11/22 09:23:20;;;;;;;101.43;53.42;;;;;;;8.67;61.07;94643.22;5115137;28;20043;-72
2021/11/22 09:25:46;;;;;;;109.53;52.53;;;;;;;8.68;60.83;94643.09;5113788;28;20035;-72
2021/11/22 09:28:11;;;;;;;95.97;50.22;;;;;;;8.77;60.99;94638.94;5115149;28;20034;-72
2021/11/22 09:30:37;;;;;;;102.45;50.17;;;;;;;8.72;60.97;94634.16;5114909;28;20426;-73
2021/11/22 09:33:04;;;;;;;85.32;46.97;;;;;;;8.82;61.13;94638.59;5096796;28;20086;-73
2021/11/22 09:35:29;;;;;;;74.90;43.40;;;;;;;8.82;60.86;94639.41;5113489;28;20076;-73
2021/11/22 09:37:55;;;;;;;79.25;43.20;;;;;;;8.79;60.80;94629.31;5114839;28;20411;-74
2021/11/22 09:40:21;;;;;;;85.13;45.20;;;;;;;8.84;60.97;94641.91;5093670;27;20472;-73
2021/11/22 09:42:46;;;;;;;77.28;44.05;;;;;;;8.91;60.70;94633.53;5123821;27;20420;-73
2021/11/22 09:45:13;;;;;;;90.85;46.47;;;;;;;8.99;60.97;94635.50;5117238;27;20032;-73
2021/11/22 09:47:38;;;;;;;80.45;43.05;;;;;;;9.02;60.76;94629.25;5102303;27;20519;-73
2021/11/22 09:50:06;;;;;;;77.45;42.47;;;;;;;9.18;60.80;94635.69;5113568;28;20098;-73
2021/11/22 09:52:32;;;;;;;78.97;44.22;;;;;;;9.27;60.45;94625.50;5096538;28;20031;-73
2021/11/22 09:54:57;;;;;;;69.78;36.13;;;;;;;9.23;60.23;94611.16;5113060;28;20035;-73
2021/11/22 09:57:23;;;;;;;70.60;38.95;;;;;;;9.32;60.08;94610.41;5113476;28;20039;-73
2021/11/22 09:59:48;;;;;;;62.25;35.20;;;;;;;9.36;59.58;94617.84;5113332;28;20089;-73
2021/11/22 10:02:14;;;;;;;62.33;35.85;;;;;;;9.42;59.32;94613.91;5096239;28;20035;-73
2021/11/22 10:04:39;;;;;;;62.90;37.45;;;;;;;9.48;59.37;94605.63;5113001;28;20036;-73
2021/11/22 10:07:06;;;;;;;60.38;33.55;;;;;;;9.45;59.37;94595.53;5079240;28;20035;-73
2021/11/22 10:09:35;;;;;;;66.28;38.25;;;;;;;9.58;58.70;94600.50;5095697;28;20054;-73
2021/11/22 10:12:20;;;;;;;51.53;31.15;;;;;;;9.66;59.02;94599.88;5114214;28;20515;-74
2021/11/22 10:14:56;;;;;;;56.72;35.45;;;;;;;9.67;58.84;94597.16;5097296;28;20027;-74
2021/11/22 10:17:23;;;;;;;54.55;32.72;;;;;;;9.72;58.67;94601.97;5112719;28;20518;-73
2021/11/22 10:20:08;;;;;;;51.00;30.60;;;;;;;9.74;58.32;94595.69;5114222;28;20447;-73
2021/11/22 10:22:44;;;;;;;56.55;32.13;;;;;;;9.71;58.35;94585.59;5114397;28;20023;-73
2021/11/22 10:25:31;;;;;;;53.38;31.95;;;;;;;9.72;58.27;94589.84;5112688;28;20030;-73
2021/11/22 10:28:07;;;;;;;74.47;43.65;;;;;;;9.74;58.24;94574.13;5118657;27;20092;-73
2021/11/22 10:30:34;;;;;;;66.75;35.78;;;;;;;9.73;58.47;94588.06;5124516;27;20532;-73
2021/11/22 10:33:01;;;;;;;59.90;32.65;;;;;;;9.73;58.33;94583.69;5095541;28;20038;-73
2021/11/22 10:35:27;;;;;;;51.47;32.05;;;;;;;9.72;58.30;94576.88;5078671;28;20492;-74
2021/11/22 10:38:00;;;;;;;51.78;29.60;;;;;;;9.85;58.28;94582.66;5121626;27;20106;-74
2021/11/22 10:40:27;;;;;;;51.60;29.80;;;;;;;9.88;58.25;94578.16;5115764;27;20031;-74
2021/11/22 10:42:52;;;;;;;56.47;34.10;;;;;;;9.92;57.88;94571.75;5098812;27;20088;-73
2021/11/22 10:45:23;;;;;;;40.95;26.20;;;;;;;9.90;56.87;94577.09;5132886;27;20035;-73
2021/11/22 10:48:10;;;;;;;39.35;25.77;;;;;;;9.90;56.77;94573.69;5115642;27;20121;-73
2021/11/22 10:50:36;;;;;;;50.97;27.90;;;;;;;9.89;57.21;94567.69;5132628;27;20043;-73
2021/11/22 10:53:05;;;;;;;45.97;28.27;;;;;;;9.88;57.45;94555.63;5134145;27;20038;-73
2021/11/22 10:55:44;;;;;;;52.30;29.08;;;;;;;9.99;57.48;94567.72;5132598;27;20404;-73
2021/11/22 10:58:09;;;;;;;47.13;27.10;;;;;;;10.09;57.44;94566.00;5115583;27;20484;-73
2021/11/22 11:00:35;;;;;;;40.83;25.98;;;;;;;10.07;57.31;94550.53;5098391;27;20088;-74
2021/11/22 11:03:05;;;;;;;39.28;24.92;;;;;;;10.18;57.13;94562.59;5132362;27;20027;-72
2021/11/22 11:05:36;;;;;;;51.40;26.70;;;;;;;10.20;56.89;94565.09;5132677;27;20031;-72
2021/11/22 11:08:02;;;;;;;39.83;21.38;;;;;;;10.18;57.10;94557.41;5115237;27;20031;-73
2021/11/22 11:10:27;;;;;;;55.78;32.17;;;;;;;10.23;56.81;94565.63;5114850;27;20038;-72
2021/11/22 11:12:55;;;;;;;52.35;25.45;;;;;;;10.25;56.72;94566.34;5122640;27;20031;-72
2021/11/22 11:15:24;;;;;;;49.22;25.23;;;;;;;10.33;56.40;94554.47;5133413;27;20039;-73
2021/11/22 11:17:49;;;;;;;37.85;24.25;;;;;;;10.40;56.71;94560.81;5115556;27;20058;-73
2021/11/22 11:20:17;;;;;;;36.90;22.10;;;;;;;10.50;56.19;94561.63;5097274;28;20435;-73